sensor_id;sensor_type;location;lat;lon;timestamp;P1;durP1;ratioP1;P2;durP2;ratioP2
46731;SDS011;32477;51.474;5.696;2023-12-20T00:00:20;26.50;;;9.18;;
46731;SDS011;32477;51.474;5.696;2023-12-20T00:02:45;33.80;;;9.55;;
46731;SDS011;32477;51.474;5.696;2023-12-20T00:05:12;42.03;;;8.95;;
46731;SDS011;32477;51.474;5.696;2023-12-20T00:07:39;38.97;;;10.38;;
46731;SDS011;32477;51.474;5.696;2023-12-20T00:10:05;35.85;;;8.38;;
46731;SDS011;32477;51.474;5.696;2023-12-20T00:12:30;24.55;;;8.63;;
46731;SDS011;32477;51.474;5.696;2023-12-20T00:14:56;28.50;;;7.85;;
46731;SDS011;32477;51.474;5.696;2023-12-20T00:17:22;29.20;;;7.95;;
46731;SDS011;32477;51.474;5.696;2023-12-20T00:19:47;33.25;;;7.22;;
46731;SDS011;32477;51.474;5.696;2023-12-20T00:22:13;31.42;;;7.78;;
46731;SDS011;32477;51.474;5.696;2023-12-20T00:24:38;23.77;;;7.00;;
46731;SDS011;32477;51.474;5.696;2023-12-20T00:27:04;27.90;;;7.15;;
46731;SDS011;32477;51.474;5.696;2023-12-20T00:29:30;25.27;;;6.07;;
46731;SDS011;32477;51.474;5.696;2023-12-20T00:31:55;31.20;;;6.55;;
46731;SDS011;32477;51.474;5.696;2023-12-20T00:34:21;35.28;;;5.90;;
46731;SDS011;32477;51.474;5.696;2023-12-20T00:36:46;22.90;;;5.40;;
46731;SDS011;32477;51.474;5.696;2023-12-20T00:39:12;32.50;;;6.43;;
46731;SDS011;32477;51.474;5.696;2023-12-20T00:41:38;25.35;;;6.38;;
46731;SDS011;32477;51.474;5.696;2023-12-20T00:44:03;22.60;;;5.43;;
46731;SDS011;32477;51.474;5.696;2023-12-20T00:46:29;22.27;;;5.78;;
46731;SDS011;32477;51.474;5.696;2023-12-20T00:48:55;33.55;;;5.38;;
46731;SDS011;32477;51.474;5.696;2023-12-20T00:51:20;26.60;;;5.85;;
46731;SDS011;32477;51.474;5.696;2023-12-20T00:53:47;15.00;;;4.47;;
46731;SDS011;32477;51.474;5.696;2023-12-20T00:56:15;17.75;;;3.47;;
46731;SDS011;32477;51.474;5.696;2023-12-20T00:58:40;19.52;;;3.70;;
46731;SDS011;32477;51.474;5.696;2023-12-20T01:01:06;22.70;;;3.30;;
46731;SDS011;32477;51.474;5.696;2023-12-20T01:03:32;20.02;;;3.90;;
46731;SDS011;32477;51.474;5.696;2023-12-20T01:05:57;12.52;;;3.53;;
46731;SDS011;32477;51.474;5.696;2023-12-20T01:08:23;29.67;;;4.55;;
46731;SDS011;32477;51.474;5.696;2023-12-20T01:10:48;13.90;;;3.63;;
46731;SDS011;32477;51.474;5.696;2023-12-20T01:13:14;28.00;;;3.60;;
46731;SDS011;32477;51.474;5.696;2023-12-20T01:15:40;19.83;;;3.42;;
46731;SDS011;32477;51.474;5.696;2023-12-20T01:18:06;18.23;;;2.97;;
46731;SDS011;32477;51.474;5.696;2023-12-20T01:20:31;19.95;;;3.85;;
46731;SDS011;32477;51.474;5.696;2023-12-20T01:22:57;25.58;;;3.42;;
46731;SDS011;32477;51.474;5.696;2023-12-20T01:25:23;25.20;;;3.72;;
46731;SDS011;32477;51.474;5.696;2023-12-20T01:27:48;23.92;;;3.53;;
46731;SDS011;32477;51.474;5.696;2023-12-20T01:30:14;12.40;;;3.20;;
46731;SDS011;32477;51.474;5.696;2023-12-20T01:32:40;12.43;;;3.33;;
46731;SDS011;32477;51.474;5.696;2023-12-20T01:35:06;32.67;;;3.72;;
46731;SDS011;32477;51.474;5.696;2023-12-20T01:37:32;16.75;;;4.25;;
46731;SDS011;32477;51.474;5.696;2023-12-20T01:39:57;30.13;;;4.95;;
46731;SDS011;32477;51.474;5.696;2023-12-20T01:42:23;20.15;;;3.45;;
46731;SDS011;32477;51.474;5.696;2023-12-20T01:44:49;12.85;;;2.92;;
46731;SDS011;32477;51.474;5.696;2023-12-20T01:47:15;16.48;;;3.30;;
46731;SDS011;32477;51.474;5.696;2023-12-20T01:49:41;20.38;;;3.38;;
46731;SDS011;32477;51.474;5.696;2023-12-20T01:52:07;23.80;;;4.72;;
46731;SDS011;32477;51.474;5.696;2023-12-20T01:54:34;28.70;;;3.72;;
46731;SDS011;32477;51.474;5.696;2023-12-20T01:57:00;21.20;;;3.67;;
46731;SDS011;32477;51.474;5.696;2023-12-20T01:59:26;23.20;;;3.72;;
46731;SDS011;32477;51.474;5.696;2023-12-20T02:01:53;30.58;;;4.25;;
46731;SDS011;32477;51.474;5.696;2023-12-20T02:04:18;26.08;;;4.35;;
46731;SDS011;32477;51.474;5.696;2023-12-20T02:06:44;26.40;;;4.00;;
46731;SDS011;32477;51.474;5.696;2023-12-20T02:09:11;37.63;;;3.78;;
46731;SDS011;32477;51.474;5.696;2023-12-20T02:11:37;34.25;;;3.88;;
46731;SDS011;32477;51.474;5.696;2023-12-20T02:14:03;19.73;;;3.47;;
46731;SDS011;32477;51.474;5.696;2023-12-20T02:16:28;24.50;;;5.18;;
46731;SDS011;32477;51.474;5.696;2023-12-20T02:18:54;14.27;;;2.95;;
46731;SDS011;32477;51.474;5.696;2023-12-20T02:21:24;31.38;;;3.80;;
46731;SDS011;32477;51.474;5.696;2023-12-20T02:23:50;31.15;;;4.43;;
46731;SDS011;32477;51.474;5.696;2023-12-20T02:26:16;21.00;;;3.42;;
46731;SDS011;32477;51.474;5.696;2023-12-20T02:28:41;26.52;;;3.67;;
46731;SDS011;32477;51.474;5.696;2023-12-20T02:31:07;19.58;;;3.67;;
46731;SDS011;32477;51.474;5.696;2023-12-20T02:33:33;24.33;;;3.60;;
46731;SDS011;32477;51.474;5.696;2023-12-20T02:35:58;21.75;;;3.72;;
46731;SDS011;32477;51.474;5.696;2023-12-20T02:38:24;34.95;;;5.80;;
46731;SDS011;32477;51.474;5.696;2023-12-20T02:40:49;18.77;;;4.15;;
46731;SDS011;32477;51.474;5.696;2023-12-20T02:43:15;25.63;;;4.68;;
46731;SDS011;32477;51.474;5.696;2023-12-20T02:45:41;24.65;;;4.20;;
46731;SDS011;32477;51.474;5.696;2023-12-20T02:48:06;26.67;;;4.47;;
46731;SDS011;32477;51.474;5.696;2023-12-20T02:50:32;18.35;;;3.97;;
46731;SDS011;32477;51.474;5.696;2023-12-20T02:52:58;26.80;;;5.22;;
46731;SDS011;32477;51.474;5.696;2023-12-20T02:55:23;26.17;;;4.15;;
46731;SDS011;32477;51.474;5.696;2023-12-20T02:57:49;26.65;;;3.83;;
46731;SDS011;32477;51.474;5.696;2023-12-20T03:00:14;25.30;;;4.25;;
46731;SDS011;32477;51.474;5.696;2023-12-20T03:02:40;23.48;;;4.05;;
46731;SDS011;32477;51.474;5.696;2023-12-20T03:05:06;30.77;;;4.18;;
46731;SDS011;32477;51.474;5.696;2023-12-20T03:07:32;24.85;;;4.68;;
46731;SDS011;32477;51.474;5.696;2023-12-20T03:09:57;35.13;;;4.95;;
46731;SDS011;32477;51.474;5.696;2023-12-20T03:12:23;20.92;;;4.05;;
46731;SDS011;32477;51.474;5.696;2023-12-20T03:14:48;27.75;;;3.95;;
46731;SDS011;32477;51.474;5.696;2023-12-20T03:17:14;31.17;;;4.60;;
46731;SDS011;32477;51.474;5.696;2023-12-20T03:19:40;23.92;;;4.25;;
46731;SDS011;32477;51.474;5.696;2023-12-20T03:22:06;27.80;;;4.40;;
46731;SDS011;32477;51.474;5.696;2023-12-20T03:24:31;21.05;;;3.88;;
46731;SDS011;32477;51.474;5.696;2023-12-20T03:26:57;37.55;;;5.05;;
46731;SDS011;32477;51.474;5.696;2023-12-20T03:29:23;28.52;;;4.15;;
46731;SDS011;32477;51.474;5.696;2023-12-20T03:31:48;24.42;;;4.47;;
46731;SDS011;32477;51.474;5.696;2023-12-20T03:34:14;17.63;;;4.35;;
46731;SDS011;32477;51.474;5.696;2023-12-20T03:36:40;30.33;;;4.25;;
46731;SDS011;32477;51.474;5.696;2023-12-20T03:39:05;19.02;;;3.85;;
46731;SDS011;32477;51.474;5.696;2023-12-20T03:41:31;20.52;;;4.43;;
46731;SDS011;32477;51.474;5.696;2023-12-20T03:43:56;28.85;;;5.30;;
46731;SDS011;32477;51.474;5.696;2023-12-20T03:46:22;23.02;;;4.22;;
46731;SDS011;32477;51.474;5.696;2023-12-20T03:48:48;31.70;;;5.13;;
46731;SDS011;32477;51.474;5.696;2023-12-20T03:51:13;27.38;;;5.15;;
46731;SDS011;32477;51.474;5.696;2023-12-20T03:53:39;20.92;;;5.10;;
46731;SDS011;32477;51.474;5.696;2023-12-20T03:56:05;28.55;;;5.97;;
46731;SDS011;32477;51.474;5.696;2023-12-20T03:58:31;30.48;;;5.78;;
46731;SDS011;32477;51.474;5.696;2023-12-20T04:00:57;21.98;;;6.18;;
46731;SDS011;32477;51.474;5.696;2023-12-20T04:03:22;29.42;;;6.20;;
46731;SDS011;32477;51.474;5.696;2023-12-20T04:05:48;46.53;;;7.13;;
46731;SDS011;32477;51.474;5.696;2023-12-20T04:08:13;37.00;;;6.25;;
46731;SDS011;32477;51.474;5.696;2023-12-20T04:10:39;28.23;;;5.55;;
46731;SDS011;32477;51.474;5.696;2023-12-20T04:13:05;27.05;;;6.22;;
46731;SDS011;32477;51.474;5.696;2023-12-20T04:15:30;26.45;;;6.15;;
46731;SDS011;32477;51.474;5.696;2023-12-20T04:17:56;21.50;;;6.15;;
46731;SDS011;32477;51.474;5.696;2023-12-20T04:20:21;35.95;;;6.70;;
46731;SDS011;32477;51.474;5.696;2023-12-20T04:22:47;41.88;;;7.38;;
46731;SDS011;32477;51.474;5.696;2023-12-20T04:25:12;32.95;;;6.65;;
46731;SDS011;32477;51.474;5.696;2023-12-20T04:27:38;18.38;;;5.55;;
46731;SDS011;32477;51.474;5.696;2023-12-20T04:30:04;20.30;;;6.25;;
46731;SDS011;32477;51.474;5.696;2023-12-20T04:32:30;35.45;;;6.50;;
46731;SDS011;32477;51.474;5.696;2023-12-20T04:34:56;36.38;;;6.13;;
46731;SDS011;32477;51.474;5.696;2023-12-20T04:37:22;35.13;;;6.57;;
46731;SDS011;32477;51.474;5.696;2023-12-20T04:39:47;28.50;;;6.47;;
46731;SDS011;32477;51.474;5.696;2023-12-20T04:42:13;46.58;;;6.90;;
46731;SDS011;32477;51.474;5.696;2023-12-20T04:44:39;29.98;;;6.93;;
46731;SDS011;32477;51.474;5.696;2023-12-20T04:47:04;26.55;;;5.93;;
46731;SDS011;32477;51.474;5.696;2023-12-20T04:49:30;30.98;;;6.38;;
46731;SDS011;32477;51.474;5.696;2023-12-20T04:51:55;30.50;;;6.50;;
46731;SDS011;32477;51.474;5.696;2023-12-20T04:54:21;34.08;;;6.47;;
46731;SDS011;32477;51.474;5.696;2023-12-20T04:56:47;32.40;;;7.47;;
46731;SDS011;32477;51.474;5.696;2023-12-20T04:59:12;21.85;;;5.50;;
46731;SDS011;32477;51.474;5.696;2023-12-20T05:01:38;34.50;;;6.55;;
46731;SDS011;32477;51.474;5.696;2023-12-20T05:04:04;32.00;;;6.82;;
46731;SDS011;32477;51.474;5.696;2023-12-20T05:06:29;29.85;;;6.13;;
46731;SDS011;32477;51.474;5.696;2023-12-20T05:08:55;49.38;;;7.03;;
46731;SDS011;32477;51.474;5.696;2023-12-20T05:11:21;33.97;;;6.15;;
46731;SDS011;32477;51.474;5.696;2023-12-20T05:13:46;23.10;;;6.60;;
46731;SDS011;32477;51.474;5.696;2023-12-20T05:16:12;27.52;;;6.72;;
46731;SDS011;32477;51.474;5.696;2023-12-20T05:18:39;35.55;;;6.78;;
46731;SDS011;32477;51.474;5.696;2023-12-20T05:21:05;37.95;;;6.45;;
46731;SDS011;32477;51.474;5.696;2023-12-20T05:23:31;28.98;;;6.70;;
46731;SDS011;32477;51.474;5.696;2023-12-20T05:25:56;25.38;;;5.55;;
46731;SDS011;32477;51.474;5.696;2023-12-20T05:28:22;30.27;;;6.63;;
46731;SDS011;32477;51.474;5.696;2023-12-20T05:30:47;45.50;;;6.80;;
46731;SDS011;32477;51.474;5.696;2023-12-20T05:33:13;22.50;;;6.18;;
46731;SDS011;32477;51.474;5.696;2023-12-20T05:35:39;32.83;;;6.63;;
46731;SDS011;32477;51.474;5.696;2023-12-20T05:38:04;26.20;;;6.90;;
46731;SDS011;32477;51.474;5.696;2023-12-20T05:40:30;19.40;;;6.30;;
46731;SDS011;32477;51.474;5.696;2023-12-20T05:42:55;25.50;;;7.13;;
46731;SDS011;32477;51.474;5.696;2023-12-20T05:45:21;25.38;;;6.88;;
46731;SDS011;32477;51.474;5.696;2023-12-20T05:47:47;34.05;;;7.07;;
46731;SDS011;32477;51.474;5.696;2023-12-20T05:50:12;23.38;;;4.85;;
46731;SDS011;32477;51.474;5.696;2023-12-20T05:52:38;25.02;;;5.88;;
46731;SDS011;32477;51.474;5.696;2023-12-20T05:55:03;37.80;;;7.38;;
46731;SDS011;32477;51.474;5.696;2023-12-20T05:57:29;35.03;;;7.47;;
46731;SDS011;32477;51.474;5.696;2023-12-20T05:59:55;30.52;;;5.97;;
46731;SDS011;32477;51.474;5.696;2023-12-20T06:02:20;33.92;;;6.38;;
46731;SDS011;32477;51.474;5.696;2023-12-20T06:04:46;29.92;;;6.78;;
46731;SDS011;32477;51.474;5.696;2023-12-20T06:07:12;35.85;;;7.10;;
46731;SDS011;32477;51.474;5.696;2023-12-20T06:09:38;36.47;;;8.05;;
46731;SDS011;32477;51.474;5.696;2023-12-20T06:12:03;34.22;;;7.10;;
46731;SDS011;32477;51.474;5.696;2023-12-20T06:14:29;21.92;;;6.07;;
46731;SDS011;32477;51.474;5.696;2023-12-20T06:16:55;30.08;;;6.55;;
46731;SDS011;32477;51.474;5.696;2023-12-20T06:19:22;37.58;;;6.88;;
46731;SDS011;32477;51.474;5.696;2023-12-20T06:21:47;29.02;;;6.72;;
46731;SDS011;32477;51.474;5.696;2023-12-20T06:24:13;37.22;;;7.00;;
46731;SDS011;32477;51.474;5.696;2023-12-20T06:26:39;26.90;;;6.95;;
46731;SDS011;32477;51.474;5.696;2023-12-20T06:29:05;38.40;;;7.32;;
46731;SDS011;32477;51.474;5.696;2023-12-20T06:31:30;34.08;;;5.80;;
46731;SDS011;32477;51.474;5.696;2023-12-20T06:33:58;25.00;;;7.15;;
46731;SDS011;32477;51.474;5.696;2023-12-20T06:36:24;26.10;;;6.20;;
46731;SDS011;32477;51.474;5.696;2023-12-20T06:38:51;27.05;;;5.53;;
46731;SDS011;32477;51.474;5.696;2023-12-20T06:41:16;29.77;;;6.40;;
46731;SDS011;32477;51.474;5.696;2023-12-20T06:43:42;26.50;;;5.43;;
46731;SDS011;32477;51.474;5.696;2023-12-20T06:46:08;29.83;;;4.72;;
46731;SDS011;32477;51.474;5.696;2023-12-20T06:48:34;29.05;;;5.63;;
46731;SDS011;32477;51.474;5.696;2023-12-20T06:51:00;22.02;;;4.80;;
46731;SDS011;32477;51.474;5.696;2023-12-20T06:53:29;32.03;;;5.50;;
46731;SDS011;32477;51.474;5.696;2023-12-20T06:55:55;31.63;;;4.95;;
46731;SDS011;32477;51.474;5.696;2023-12-20T06:58:23;27.73;;;4.95;;
46731;SDS011;32477;51.474;5.696;2023-12-20T07:00:50;26.58;;;4.07;;
46731;SDS011;32477;51.474;5.696;2023-12-20T07:03:16;22.83;;;4.85;;
46731;SDS011;32477;51.474;5.696;2023-12-20T07:05:42;24.75;;;4.57;;
46731;SDS011;32477;51.474;5.696;2023-12-20T07:08:08;16.88;;;4.75;;
46731;SDS011;32477;51.474;5.696;2023-12-20T07:10:34;19.45;;;4.28;;
46731;SDS011;32477;51.474;5.696;2023-12-20T07:12:59;21.20;;;4.47;;
46731;SDS011;32477;51.474;5.696;2023-12-20T07:15:25;27.33;;;4.50;;
46731;SDS011;32477;51.474;5.696;2023-12-20T07:17:51;17.73;;;4.82;;
46731;SDS011;32477;51.474;5.696;2023-12-20T07:20:18;25.73;;;4.72;;
46731;SDS011;32477;51.474;5.696;2023-12-20T07:22:43;20.65;;;3.80;;
46731;SDS011;32477;51.474;5.696;2023-12-20T07:25:09;19.75;;;4.45;;
46731;SDS011;32477;51.474;5.696;2023-12-20T07:27:35;32.15;;;4.18;;
46731;SDS011;32477;51.474;5.696;2023-12-20T07:30:01;26.08;;;4.47;;
46731;SDS011;32477;51.474;5.696;2023-12-20T07:32:27;22.42;;;4.38;;
46731;SDS011;32477;51.474;5.696;2023-12-20T07:34:52;25.10;;;4.53;;
46731;SDS011;32477;51.474;5.696;2023-12-20T07:37:19;18.35;;;4.13;;
46731;SDS011;32477;51.474;5.696;2023-12-20T07:39:46;28.02;;;4.63;;
46731;SDS011;32477;51.474;5.696;2023-12-20T07:42:11;33.63;;;4.78;;
46731;SDS011;32477;51.474;5.696;2023-12-20T07:44:37;22.73;;;4.90;;
46731;SDS011;32477;51.474;5.696;2023-12-20T07:47:02;19.45;;;3.47;;
46731;SDS011;32477;51.474;5.696;2023-12-20T07:49:28;21.25;;;4.07;;
46731;SDS011;32477;51.474;5.696;2023-12-20T07:51:55;15.10;;;3.97;;
46731;SDS011;32477;51.474;5.696;2023-12-20T07:54:20;20.20;;;3.80;;
46731;SDS011;32477;51.474;5.696;2023-12-20T07:56:46;16.20;;;3.40;;
46731;SDS011;32477;51.474;5.696;2023-12-20T07:59:12;38.65;;;5.05;;
46731;SDS011;32477;51.474;5.696;2023-12-20T08:01:37;23.48;;;3.95;;
46731;SDS011;32477;51.474;5.696;2023-12-20T08:04:03;16.58;;;3.08;;
46731;SDS011;32477;51.474;5.696;2023-12-20T08:06:29;27.10;;;4.18;;
46731;SDS011;32477;51.474;5.696;2023-12-20T08:08:54;27.00;;;4.07;;
46731;SDS011;32477;51.474;5.696;2023-12-20T08:11:20;15.32;;;3.58;;
46731;SDS011;32477;51.474;5.696;2023-12-20T08:13:46;19.77;;;4.15;;
46731;SDS011;32477;51.474;5.696;2023-12-20T08:16:11;17.38;;;3.67;;
46731;SDS011;32477;51.474;5.696;2023-12-20T08:18:38;26.23;;;4.20;;
46731;SDS011;32477;51.474;5.696;2023-12-20T08:21:04;21.98;;;4.80;;
46731;SDS011;32477;51.474;5.696;2023-12-20T08:23:32;23.42;;;3.97;;
46731;SDS011;32477;51.474;5.696;2023-12-20T08:25:58;36.00;;;3.63;;
46731;SDS011;32477;51.474;5.696;2023-12-20T08:28:28;14.25;;;3.83;;
46731;SDS011;32477;51.474;5.696;2023-12-20T08:30:54;21.02;;;4.10;;
46731;SDS011;32477;51.474;5.696;2023-12-20T08:33:19;20.38;;;3.53;;
46731;SDS011;32477;51.474;5.696;2023-12-20T08:35:45;21.02;;;4.45;;
46731;SDS011;32477;51.474;5.696;2023-12-20T08:38:11;19.55;;;5.03;;
46731;SDS011;32477;51.474;5.696;2023-12-20T08:40:37;16.42;;;3.88;;
46731;SDS011;32477;51.474;5.696;2023-12-20T08:43:03;16.58;;;3.28;;
46731;SDS011;32477;51.474;5.696;2023-12-20T08:45:28;19.52;;;3.63;;
46731;SDS011;32477;51.474;5.696;2023-12-20T08:47:54;17.88;;;3.17;;
46731;SDS011;32477;51.474;5.696;2023-12-20T08:50:19;15.13;;;3.28;;
46731;SDS011;32477;51.474;5.696;2023-12-20T08:52:45;24.85;;;4.43;;
46731;SDS011;32477;51.474;5.696;2023-12-20T08:55:11;32.00;;;4.65;;
46731;SDS011;32477;51.474;5.696;2023-12-20T08:57:37;28.95;;;3.80;;
46731;SDS011;32477;51.474;5.696;2023-12-20T09:00:03;22.75;;;3.80;;
46731;SDS011;32477;51.474;5.696;2023-12-20T09:02:29;25.88;;;3.50;;
46731;SDS011;32477;51.474;5.696;2023-12-20T09:04:55;22.08;;;3.95;;
46731;SDS011;32477;51.474;5.696;2023-12-20T09:07:24;20.10;;;4.35;;
46731;SDS011;32477;51.474;5.696;2023-12-20T09:09:51;14.27;;;3.50;;
46731;SDS011;32477;51.474;5.696;2023-12-20T09:12:18;16.73;;;3.33;;
46731;SDS011;32477;51.474;5.696;2023-12-20T09:14:45;18.23;;;3.55;;
46731;SDS011;32477;51.474;5.696;2023-12-20T09:17:15;15.73;;;4.05;;
46731;SDS011;32477;51.474;5.696;2023-12-20T09:19:42;21.00;;;3.63;;
46731;SDS011;32477;51.474;5.696;2023-12-20T09:22:11;23.30;;;3.80;;
46731;SDS011;32477;51.474;5.696;2023-12-20T09:24:37;14.70;;;3.58;;
46731;SDS011;32477;51.474;5.696;2023-12-20T09:27:03;23.30;;;3.22;;
46731;SDS011;32477;51.474;5.696;2023-12-20T09:29:30;23.27;;;3.30;;
46731;SDS011;32477;51.474;5.696;2023-12-20T09:31:56;19.75;;;4.18;;
46731;SDS011;32477;51.474;5.696;2023-12-20T09:34:22;17.35;;;3.15;;
46731;SDS011;32477;51.474;5.696;2023-12-20T09:36:48;10.70;;;3.80;;
46731;SDS011;32477;51.474;5.696;2023-12-20T09:39:14;24.95;;;3.72;;
46731;SDS011;32477;51.474;5.696;2023-12-20T09:41:44;24.85;;;3.35;;
46731;SDS011;32477;51.474;5.696;2023-12-20T09:44:15;24.27;;;4.47;;
46731;SDS011;32477;51.474;5.696;2023-12-20T09:46:44;22.88;;;3.45;;
46731;SDS011;32477;51.474;5.696;2023-12-20T09:49:12;25.23;;;3.88;;
46731;SDS011;32477;51.474;5.696;2023-12-20T09:51:38;28.08;;;4.90;;
46731;SDS011;32477;51.474;5.696;2023-12-20T09:54:05;17.67;;;3.67;;
46731;SDS011;32477;51.474;5.696;2023-12-20T09:56:31;22.60;;;3.95;;
46731;SDS011;32477;51.474;5.696;2023-12-20T09:58:57;20.13;;;3.83;;
46731;SDS011;32477;51.474;5.696;2023-12-20T10:01:23;14.93;;;3.53;;
46731;SDS011;32477;51.474;5.696;2023-12-20T10:03:50;16.67;;;3.50;;
46731;SDS011;32477;51.474;5.696;2023-12-20T10:06:19;9.63;;;3.00;;
46731;SDS011;32477;51.474;5.696;2023-12-20T10:08:45;22.70;;;4.00;;
46731;SDS011;32477;51.474;5.696;2023-12-20T10:11:11;10.88;;;2.90;;
46731;SDS011;32477;51.474;5.696;2023-12-20T10:13:39;17.30;;;4.30;;
46731;SDS011;32477;51.474;5.696;2023-12-20T10:16:06;13.23;;;3.08;;
46731;SDS011;32477;51.474;5.696;2023-12-20T10:18:34;18.30;;;4.78;;
46731;SDS011;32477;51.474;5.696;2023-12-20T10:21:01;18.27;;;4.50;;
46731;SDS011;32477;51.474;5.696;2023-12-20T10:23:28;13.32;;;3.17;;
46731;SDS011;32477;51.474;5.696;2023-12-20T10:25:57;16.90;;;4.10;;
46731;SDS011;32477;51.474;5.696;2023-12-20T10:28:26;19.40;;;4.80;;
46731;SDS011;32477;51.474;5.696;2023-12-20T10:30:54;15.68;;;3.95;;
46731;SDS011;32477;51.474;5.696;2023-12-20T10:33:30;18.75;;;3.90;;
46731;SDS011;32477;51.474;5.696;2023-12-20T10:35:57;23.23;;;4.00;;
46731;SDS011;32477;51.474;5.696;2023-12-20T10:38:23;16.35;;;3.90;;
46731;SDS011;32477;51.474;5.696;2023-12-20T10:40:48;13.40;;;3.30;;
46731;SDS011;32477;51.474;5.696;2023-12-20T10:43:20;23.52;;;3.65;;
46731;SDS011;32477;51.474;5.696;2023-12-20T10:45:47;21.85;;;3.95;;
46731;SDS011;32477;51.474;5.696;2023-12-20T10:48:12;25.88;;;3.95;;
46731;SDS011;32477;51.474;5.696;2023-12-20T10:50:38;18.05;;;4.05;;
46731;SDS011;32477;51.474;5.696;2023-12-20T10:53:06;22.63;;;4.05;;
46731;SDS011;32477;51.474;5.696;2023-12-20T10:55:32;8.75;;;3.08;;
46731;SDS011;32477;51.474;5.696;2023-12-20T10:58:02;23.85;;;5.45;;
46731;SDS011;32477;51.474;5.696;2023-12-20T11:03:03;16.85;;;3.97;;
46731;SDS011;32477;51.474;5.696;2023-12-20T11:08:28;25.20;;;3.65;;
46731;SDS011;32477;51.474;5.696;2023-12-20T11:11:08;19.10;;;4.30;;
46731;SDS011;32477;51.474;5.696;2023-12-20T11:13:53;26.08;;;4.88;;
46731;SDS011;32477;51.474;5.696;2023-12-20T11:16:33;13.95;;;3.05;;
46731;SDS011;32477;51.474;5.696;2023-12-20T11:19:05;23.55;;;4.00;;
46731;SDS011;32477;51.474;5.696;2023-12-20T11:21:32;14.75;;;3.88;;
46731;SDS011;32477;51.474;5.696;2023-12-20T11:23:58;24.10;;;4.90;;
46731;SDS011;32477;51.474;5.696;2023-12-20T11:26:27;16.63;;;3.70;;
46731;SDS011;32477;51.474;5.696;2023-12-20T11:28:54;18.73;;;4.60;;
46731;SDS011;32477;51.474;5.696;2023-12-20T11:31:40;17.67;;;3.78;;
46731;SDS011;32477;51.474;5.696;2023-12-20T11:34:13;15.32;;;3.53;;
46731;SDS011;32477;51.474;5.696;2023-12-20T11:36:42;19.20;;;4.13;;
46731;SDS011;32477;51.474;5.696;2023-12-20T11:39:08;11.10;;;3.03;;
46731;SDS011;32477;51.474;5.696;2023-12-20T11:41:33;18.30;;;4.63;;
46731;SDS011;32477;51.474;5.696;2023-12-20T11:43:59;20.15;;;4.45;;
46731;SDS011;32477;51.474;5.696;2023-12-20T11:46:26;18.75;;;3.60;;
46731;SDS011;32477;51.474;5.696;2023-12-20T11:48:51;11.32;;;3.85;;
46731;SDS011;32477;51.474;5.696;2023-12-20T11:51:17;14.27;;;4.13;;
46731;SDS011;32477;51.474;5.696;2023-12-20T11:53:42;21.52;;;4.63;;
46731;SDS011;32477;51.474;5.696;2023-12-20T11:56:08;17.23;;;4.32;;
46731;SDS011;32477;51.474;5.696;2023-12-20T11:58:34;19.50;;;4.05;;
46731;SDS011;32477;51.474;5.696;2023-12-20T12:01:01;23.80;;;4.35;;
46731;SDS011;32477;51.474;5.696;2023-12-20T12:03:27;23.55;;;4.60;;
46731;SDS011;32477;51.474;5.696;2023-12-20T12:05:53;16.08;;;5.07;;
46731;SDS011;32477;51.474;5.696;2023-12-20T12:08:19;23.95;;;3.95;;
46731;SDS011;32477;51.474;5.696;2023-12-20T12:10:44;10.65;;;3.83;;
46731;SDS011;32477;51.474;5.696;2023-12-20T12:13:10;18.55;;;5.10;;
46731;SDS011;32477;51.474;5.696;2023-12-20T12:15:36;17.58;;;4.68;;
46731;SDS011;32477;51.474;5.696;2023-12-20T12:18:03;11.40;;;3.45;;
46731;SDS011;32477;51.474;5.696;2023-12-20T12:20:30;20.27;;;5.25;;
46731;SDS011;32477;51.474;5.696;2023-12-20T12:22:59;16.85;;;4.30;;
46731;SDS011;32477;51.474;5.696;2023-12-20T12:25:26;14.15;;;4.07;;
46731;SDS011;32477;51.474;5.696;2023-12-20T12:27:53;20.40;;;6.30;;
46731;SDS011;32477;51.474;5.696;2023-12-20T12:30:19;17.83;;;4.57;;
46731;SDS011;32477;51.474;5.696;2023-12-20T12:32:44;22.77;;;5.35;;
46731;SDS011;32477;51.474;5.696;2023-12-20T12:35:10;28.83;;;6.25;;
46731;SDS011;32477;51.474;5.696;2023-12-20T12:37:39;27.95;;;6.35;;
46731;SDS011;32477;51.474;5.696;2023-12-20T12:40:09;18.00;;;5.25;;
46731;SDS011;32477;51.474;5.696;2023-12-20T12:42:36;18.35;;;5.80;;
46731;SDS011;32477;51.474;5.696;2023-12-20T12:45:02;25.27;;;5.57;;
46731;SDS011;32477;51.474;5.696;2023-12-20T12:47:30;24.23;;;6.63;;
46731;SDS011;32477;51.474;5.696;2023-12-20T12:49:56;11.70;;;5.32;;
46731;SDS011;32477;51.474;5.696;2023-12-20T12:52:21;36.30;;;7.82;;
46731;SDS011;32477;51.474;5.696;2023-12-20T12:54:48;16.60;;;5.63;;
46731;SDS011;32477;51.474;5.696;2023-12-20T12:57:14;23.33;;;6.53;;
46731;SDS011;32477;51.474;5.696;2023-12-20T12:59:41;21.33;;;6.03;;
46731;SDS011;32477;51.474;5.696;2023-12-20T13:02:07;20.70;;;5.82;;
46731;SDS011;32477;51.474;5.696;2023-12-20T13:04:33;25.25;;;6.63;;
46731;SDS011;32477;51.474;5.696;2023-12-20T13:06:59;25.73;;;7.43;;
46731;SDS011;32477;51.474;5.696;2023-12-20T13:09:25;23.63;;;7.65;;
46731;SDS011;32477;51.474;5.696;2023-12-20T13:11:50;23.00;;;7.30;;
46731;SDS011;32477;51.474;5.696;2023-12-20T13:14:16;26.17;;;6.88;;
46731;SDS011;32477;51.474;5.696;2023-12-20T13:16:42;16.90;;;6.97;;
46731;SDS011;32477;51.474;5.696;2023-12-20T13:19:08;22.05;;;6.65;;
46731;SDS011;32477;51.474;5.696;2023-12-20T13:21:34;20.95;;;7.40;;
46731;SDS011;32477;51.474;5.696;2023-12-20T13:24:00;30.83;;;8.15;;
46731;SDS011;32477;51.474;5.696;2023-12-20T13:26:26;24.17;;;7.25;;
46731;SDS011;32477;51.474;5.696;2023-12-20T13:28:52;34.75;;;7.75;;
46731;SDS011;32477;51.474;5.696;2023-12-20T13:31:19;30.58;;;8.10;;
46731;SDS011;32477;51.474;5.696;2023-12-20T13:33:45;28.13;;;8.07;;
46731;SDS011;32477;51.474;5.696;2023-12-20T13:36:11;29.50;;;9.15;;
46731;SDS011;32477;51.474;5.696;2023-12-20T13:38:37;22.83;;;7.18;;
46731;SDS011;32477;51.474;5.696;2023-12-20T13:41:03;24.00;;;8.45;;
46731;SDS011;32477;51.474;5.696;2023-12-20T13:43:30;25.98;;;6.63;;
46731;SDS011;32477;51.474;5.696;2023-12-20T13:45:57;16.48;;;6.80;;
46731;SDS011;32477;51.474;5.696;2023-12-20T13:48:26;26.00;;;6.70;;
46731;SDS011;32477;51.474;5.696;2023-12-20T13:50:52;21.85;;;7.03;;
46731;SDS011;32477;51.474;5.696;2023-12-20T13:53:17;42.20;;;6.78;;
46731;SDS011;32477;51.474;5.696;2023-12-20T13:55:44;29.63;;;7.60;;
46731;SDS011;32477;51.474;5.696;2023-12-20T13:58:09;20.80;;;7.28;;
46731;SDS011;32477;51.474;5.696;2023-12-20T14:00:35;18.40;;;6.72;;
46731;SDS011;32477;51.474;5.696;2023-12-20T14:03:02;18.23;;;6.38;;
46731;SDS011;32477;51.474;5.696;2023-12-20T14:05:29;22.23;;;5.93;;
46731;SDS011;32477;51.474;5.696;2023-12-20T14:07:54;20.80;;;6.25;;
46731;SDS011;32477;51.474;5.696;2023-12-20T14:10:22;36.58;;;6.50;;
46731;SDS011;32477;51.474;5.696;2023-12-20T14:12:49;17.85;;;5.70;;
46731;SDS011;32477;51.474;5.696;2023-12-20T14:15:15;19.00;;;6.05;;
46731;SDS011;32477;51.474;5.696;2023-12-20T14:17:41;19.92;;;5.63;;
46731;SDS011;32477;51.474;5.696;2023-12-20T14:20:09;25.38;;;6.13;;
46731;SDS011;32477;51.474;5.696;2023-12-20T14:22:37;22.00;;;6.65;;
46731;SDS011;32477;51.474;5.696;2023-12-20T14:25:03;21.88;;;5.82;;
46731;SDS011;32477;51.474;5.696;2023-12-20T14:27:31;20.35;;;5.70;;
46731;SDS011;32477;51.474;5.696;2023-12-20T14:29:57;13.85;;;4.78;;
46731;SDS011;32477;51.474;5.696;2023-12-20T14:32:23;21.25;;;6.03;;